sensor_id;sensor_type;location;lat;lon;timestamp;P1;durP1;ratioP1;P2;durP2;ratioP2
74528;SDS011;63009;52.584;5.932;2022-08-19T19:36:35;8.68;;;2.40;;
74528;SDS011;63009;52.584;5.932;2022-08-19T19:39:00;10.80;;;2.03;;
74528;SDS011;63009;52.584;5.932;2022-08-19T19:50:34;7.93;;;3.28;;
74528;SDS011;63009;52.584;5.932;2022-08-19T19:52:59;8.00;;;3.87;;
74528;SDS011;63009;52.584;5.932;2022-08-19T19:55:24;9.77;;;3.97;;
74528;SDS011;63009;52.584;5.932;2022-08-19T19:57:50;8.73;;;3.70;;
74528;SDS011;63009;52.584;5.932;2022-08-19T20:00:17;9.20;;;3.75;;
74528;SDS011;63009;52.584;5.932;2022-08-19T20:02:44;7.72;;;3.33;;
74528;SDS011;63009;52.584;5.932;2022-08-19T20:05:10;8.25;;;3.50;;
74528;SDS011;63009;52.584;5.932;2022-08-19T20:07:36;7.90;;;3.50;;
74528;SDS011;63009;52.584;5.932;2022-08-19T20:10:22;7.47;;;2.95;;
74528;SDS011;63009;52.584;5.932;2022-08-19T20:12:47;9.20;;;3.72;;
74528;SDS011;63009;52.584;5.932;2022-08-19T20:15:15;7.55;;;3.65;;
74528;SDS011;63009;52.584;5.932;2022-08-19T20:17:41;9.48;;;3.17;;
74528;SDS011;63009;52.584;5.932;2022-08-19T20:20:10;7.90;;;3.50;;
74528;SDS011;63009;52.584;5.932;2022-08-19T20:22:38;7.43;;;3.17;;
74528;SDS011;63009;52.584;5.932;2022-08-19T20:25:04;7.90;;;3.90;;
74528;SDS011;63009;52.584;5.932;2022-08-19T20:27:30;8.68;;;3.65;;
74528;SDS011;63009;52.584;5.932;2022-08-19T20:29:57;7.55;;;3.33;;
74528;SDS011;63009;52.584;5.932;2022-08-19T20:32:22;7.45;;;3.30;;
74528;SDS011;63009;52.584;5.932;2022-08-19T20:34:48;9.07;;;3.37;;
74528;SDS011;63009;52.584;5.932;2022-08-19T20:37:13;8.00;;;3.47;;
74528;SDS011;63009;52.584;5.932;2022-08-19T20:39:39;8.55;;;3.92;;
74528;SDS011;63009;52.584;5.932;2022-08-19T20:42:04;7.53;;;2.90;;
74528;SDS011;63009;52.584;5.932;2022-08-19T20:44:29;7.60;;;3.38;;
74528;SDS011;63009;52.584;5.932;2022-08-19T20:46:55;8.60;;;4.10;;
74528;SDS011;63009;52.584;5.932;2022-08-19T20:49:20;9.70;;;3.60;;
74528;SDS011;63009;52.584;5.932;2022-08-19T20:51:45;8.00;;;3.43;;
74528;SDS011;63009;52.584;5.932;2022-08-19T20:54:11;9.75;;;3.88;;
74528;SDS011;63009;52.584;5.932;2022-08-19T20:56:36;9.27;;;4.03;;
74528;SDS011;63009;52.584;5.932;2022-08-19T20:59:01;9.15;;;4.60;;
74528;SDS011;63009;52.584;5.932;2022-08-19T21:01:28;10.15;;;4.35;;
74528;SDS011;63009;52.584;5.932;2022-08-19T21:03:54;9.98;;;4.55;;
74528;SDS011;63009;52.584;5.932;2022-08-19T21:06:19;12.43;;;4.43;;
74528;SDS011;63009;52.584;5.932;2022-08-19T21:08:44;9.27;;;4.95;;
74528;SDS011;63009;52.584;5.932;2022-08-19T21:16:00;10.00;;;4.90;;
74528;SDS011;63009;52.584;5.932;2022-08-19T21:18:25;10.50;;;4.30;;
74528;SDS011;63009;52.584;5.932;2022-08-19T21:20:51;9.52;;;4.47;;
74528;SDS011;63009;52.584;5.932;2022-08-19T21:23:19;9.73;;;4.55;;
74528;SDS011;63009;52.584;5.932;2022-08-19T21:25:47;9.82;;;4.95;;
74528;SDS011;63009;52.584;5.932;2022-08-19T21:28:15;10.35;;;4.93;;
74528;SDS011;63009;52.584;5.932;2022-08-19T21:30:40;13.20;;;5.23;;
74528;SDS011;63009;52.584;5.932;2022-08-19T21:33:05;10.65;;;4.88;;
74528;SDS011;63009;52.584;5.932;2022-08-19T21:35:31;10.23;;;5.50;;
74528;SDS011;63009;52.584;5.932;2022-08-19T21:37:57;11.82;;;5.65;;
74528;SDS011;63009;52.584;5.932;2022-08-19T21:40:23;10.40;;;5.18;;
74528;SDS011;63009;52.584;5.932;2022-08-19T21:42:49;10.90;;;5.35;;
74528;SDS011;63009;52.584;5.932;2022-08-19T21:45:15;11.57;;;5.57;;
74528;SDS011;63009;52.584;5.932;2022-08-19T21:47:41;10.65;;;5.72;;
74528;SDS011;63009;52.584;5.932;2022-08-19T21:50:07;11.63;;;6.05;;
74528;SDS011;63009;52.584;5.932;2022-08-19T21:52:35;10.32;;;5.32;;
74528;SDS011;63009;52.584;5.932;2022-08-19T21:55:01;10.25;;;5.43;;
74528;SDS011;63009;52.584;5.932;2022-08-19T21:57:26;11.32;;;5.03;;
74528;SDS011;63009;52.584;5.932;2022-08-19T21:59:52;10.00;;;5.50;;
74528;SDS011;63009;52.584;5.932;2022-08-19T22:02:17;11.43;;;5.13;;
74528;SDS011;63009;52.584;5.932;2022-08-19T22:04:43;9.52;;;4.60;;
74528;SDS011;63009;52.584;5.932;2022-08-19T22:07:10;10.98;;;6.00;;
74528;SDS011;63009;52.584;5.932;2022-08-19T22:09:38;9.07;;;4.90;;
74528;SDS011;63009;52.584;5.932;2022-08-19T22:12:05;10.20;;;5.55;;
74528;SDS011;63009;52.584;5.932;2022-08-19T22:16:58;11.68;;;5.22;;
74528;SDS011;63009;52.584;5.932;2022-08-19T22:19:25;11.57;;;4.65;;
74528;SDS011;63009;52.584;5.932;2022-08-19T22:21:50;11.35;;;4.78;;
74528;SDS011;63009;52.584;5.932;2022-08-19T22:24:15;9.50;;;4.50;;
74528;SDS011;63009;52.584;5.932;2022-08-19T22:26:41;12.07;;;4.50;;
74528;SDS011;63009;52.584;5.932;2022-08-19T22:29:06;10.33;;;4.40;;
74528;SDS011;63009;52.584;5.932;2022-08-19T22:31:31;9.13;;;4.77;;
74528;SDS011;63009;52.584;5.932;2022-08-19T22:33:56;9.50;;;4.57;;
74528;SDS011;63009;52.584;5.932;2022-08-19T22:36:22;9.30;;;4.13;;
74528;SDS011;63009;52.584;5.932;2022-08-19T22:38:47;11.73;;;4.57;;
74528;SDS011;63009;52.584;5.932;2022-08-19T22:41:12;11.37;;;5.30;;
74528;SDS011;63009;52.584;5.932;2022-08-19T22:43:39;13.15;;;5.00;;
74528;SDS011;63009;52.584;5.932;2022-08-19T22:46:04;9.77;;;5.70;;
74528;SDS011;63009;52.584;5.932;2022-08-19T22:48:30;9.60;;;5.00;;
74528;SDS011;63009;52.584;5.932;2022-08-19T22:50:56;9.65;;;4.72;;
74528;SDS011;63009;52.584;5.932;2022-08-19T22:53:43;10.40;;;4.37;;
74528;SDS011;63009;52.584;5.932;2022-08-19T22:56:10;9.15;;;4.45;;
74528;SDS011;63009;52.584;5.932;2022-08-19T22:58:37;12.43;;;4.80;;
74528;SDS011;63009;52.584;5.932;2022-08-19T23:01:02;11.65;;;4.20;;
74528;SDS011;63009;52.584;5.932;2022-08-19T23:03:29;10.55;;;4.53;;
74528;SDS011;63009;52.584;5.932;2022-08-19T23:05:54;12.88;;;4.40;;
74528;SDS011;63009;52.584;5.932;2022-08-19T23:08:20;10.23;;;4.53;;
74528;SDS011;63009;52.584;5.932;2022-08-19T23:10:45;9.18;;;4.10;;
74528;SDS011;63009;52.584;5.932;2022-08-19T23:13:12;15.30;;;4.75;;
74528;SDS011;63009;52.584;5.932;2022-08-19T23:15:38;9.88;;;4.05;;
74528;SDS011;63009;52.584;5.932;2022-08-19T23:18:03;11.63;;;4.83;;
74528;SDS011;63009;52.584;5.932;2022-08-19T23:20:32;10.73;;;4.88;;
74528;SDS011;63009;52.584;5.932;2022-08-19T23:23:05;10.07;;;4.60;;
74528;SDS011;63009;52.584;5.932;2022-08-19T23:25:33;10.50;;;4.63;;
74528;SDS011;63009;52.584;5.932;2022-08-19T23:27:59;10.18;;;4.60;;
74528;SDS011;63009;52.584;5.932;2022-08-19T23:30:44;9.68;;;4.63;;
74528;SDS011;63009;52.584;5.932;2022-08-19T23:35:42;9.43;;;4.53;;
74528;SDS011;63009;52.584;5.932;2022-08-19T23:38:08;12.38;;;5.38;;
74528;SDS011;63009;52.584;5.932;2022-08-19T23:40:35;11.52;;;4.35;;
74528;SDS011;63009;52.584;5.932;2022-08-19T23:43:01;9.93;;;4.90;;
74528;SDS011;63009;52.584;5.932;2022-08-19T23:45:27;13.75;;;5.30;;
74528;SDS011;63009;52.584;5.932;2022-08-19T23:47:53;10.52;;;5.25;;
74528;SDS011;63009;52.584;5.932;2022-08-19T23:50:19;13.32;;;5.40;;
74528;SDS011;63009;52.584;5.932;2022-08-19T23:52:51;9.90;;;5.05;;
74528;SDS011;63009;52.584;5.932;2022-08-19T23:55:19;10.57;;;4.85;;
74528;SDS011;63009;52.584;5.932;2022-08-19T23:57:46;10.45;;;4.72;;
